EDDH/HAM METAR and TAF weather

Enter ICAO airport designator
Station Type Date Time Source
EDDH METAR 2018/09/20 18:50 UTC NOAA

EDDH 201850Z 22003KT CAVOK 19/13 Q1011 NOSIG


Station Type Date Time Source
EDDH Decoded METAR 2018/09/20 18:50 UTC NOAA

Hamburg-Fuhlsbuettel, Germany (EDDH) 53-38N 010-00E 15M
Sep 20, 2018 - 02:50 PM EDT / 2018.09.20 1850 UTC
Wind: from the SW (220 degrees) at 3 MPH (3 KT):0
Visibility: greater than 7 mile(s):0
Temperature: 66 F (19 C)
Dew Point: 55 F (13 C)
Relative Humidity: 68%
Pressure (altimeter): 29.85 in. Hg (1011 hPa)
ob: EDDH 201850Z 22003KT CAVOK 19/13 Q1011 NOSIG
cycle: 19

Station Type Date Time Source
EDDH TAF 2018/09/20 18:27 UTC NOAA

TAF EDDH 201700Z 2018/2124 23011KT CAVOK
BECMG 2018/2020 17006KT
BECMG 2101/2103 17011KT
BECMG 2105/2108 20015G25KT
BECMG 2108/2111 23020G35KT PROB30
TEMPO 2109/2112 4000 RA
TEMPO 2111/2115 24025G45KT
BECMG 2117/2120 23015G25KT
TEMPO 2120/2124 23012KT


Example: see airport list